Time;durP1;ratioP1;P1;durP2;ratioP2;P2;SDS_P1;SDS_P2;PMS_P1;PMS_P2;Temp;Humidity;BMP_temperature;BMP_pressure;BME280_temperature;BME280_humidity;BME280_pressure;Samples;Min_cycle;Max_cycle;Signal;HPM_P1;HPM_P2
2023/09/04 00:02:13;;;;;;;4.95;1.67;;;;;;;;;;4991049;28;92458;-79
2023/09/04 00:04:39;;;;;;;5.40;1.88;;;;;;;;;;4991416;28;92971;-80
2023/09/04 00:07:06;;;;;;;3.42;1.60;;;;;;;;;;4972196;28;95039;-80
2023/09/04 00:09:32;;;;;;;3.50;1.52;;;;;;;;;;4991076;28;93064;-79
2023/09/04 00:11:59;;;;;;;6.90;2.20;;;;;;;;;;4970720;28;95054;-79
2023/09/04 00:14:25;;;;;;;10.90;2.10;;;;;;;;;;4993277;28;93190;-80
2023/09/04 00:16:52;;;;;;;8.15;1.95;;;;;;;;;;4989922;28;93024;-79
2023/09/04 00:19:19;;;;;;;4.72;1.58;;;;;;;;;;4990210;28;93676;-80
2023/09/04 00:21:45;;;;;;;4.68;1.83;;;;;;;;;;4972135;28;92980;-79
2023/09/04 00:24:12;;;;;;;3.88;1.70;;;;;;;;;;4990592;28;92903;-80
2023/09/04 00:26:38;;;;;;;5.60;1.80;;;;;;;;;;4989579;28;93035;-80
2023/09/04 00:29:05;;;;;;;4.50;1.88;;;;;;;;;;4957141;28;92090;-80
2023/09/04 00:31:31;;;;;;;3.45;1.42;;;;;;;;;;4972147;28;94783;-80
2023/09/04 00:33:58;;;;;;;2.92;1.70;;;;;;;;;;4990489;28;94151;-80
2023/09/04 00:36:25;;;;;;;3.65;1.80;;;;;;;;;;4991788;28;95177;-80
2023/09/04 00:38:51;;;;;;;3.13;1.60;;;;;;;;;;4971777;28;97088;-80
2023/09/04 00:41:19;;;;;;;3.08;1.55;;;;;;;;;;4971527;28;92530;-80
2023/09/04 00:43:46;;;;;;;4.85;1.60;;;;;;;;;;4949710;28;94414;-80
2023/09/04 00:46:13;;;;;;;4.55;1.70;;;;;;;;;;4981391;28;93229;-80
2023/09/04 00:48:41;;;;;;;4.20;1.80;;;;;;;;;;4971755;28;92947;-80
2023/09/04 00:51:07;;;;;;;6.95;1.80;;;;;;;;;;4989917;28;92689;-79
2023/09/04 00:53:35;;;;;;;4.47;1.80;;;;;;;;;;4990030;28;92280;-80
2023/09/04 00:56:03;;;;;;;4.18;1.63;;;;;;;;;;4971403;28;92664;-80
2023/09/04 00:58:29;;;;;;;5.70;1.70;;;;;;;;;;4993184;28;92457;-79
2023/09/04 01:00:56;;;;;;;3.10;1.60;;;;;;;;;;4953868;28;95046;-79
2023/09/04 01:03:23;;;;;;;6.88;2.13;;;;;;;;;;4972130;28;97578;-80
2023/09/04 01:05:50;;;;;;;2.80;1.50;;;;;;;;;;4990373;28;93086;-79
2023/09/04 01:08:16;;;;;;;3.17;1.60;;;;;;;;;;4971869;28;92410;-80
2023/09/04 01:10:51;;;;;;;4.47;1.83;;;;;;;;;;4989978;28;93846;-79
2023/09/04 01:13:24;;;;;;;5.00;1.63;;;;;;;;;;4989719;28;93634;-80
2023/09/04 01:15:51;;;;;;;4.97;1.80;;;;;;;;;;4971607;28;93196;-80
2023/09/04 01:18:18;;;;;;;4.47;1.70;;;;;;;;;;4974966;28;93849;-80
2023/09/04 01:20:45;;;;;;;;;;;;;;;;;;4955483;28;92623;-80
2023/09/04 01:23:11;;;;;;;4.80;1.70;;;;;;;;;;4972697;28;96861;-79
2023/09/04 01:25:43;;;;;;;4.80;1.73;;;;;;;;;;4968726;28;98163;-80
2023/09/04 01:28:19;;;;;;;3.92;1.80;;;;;;;;;;4988636;28;92485;-80
2023/09/04 01:30:48;;;;;;;4.82;1.80;;;;;;;;;;4971547;28;96016;-80
2023/09/04 01:33:19;;;;;;;4.53;2.00;;;;;;;;;;4989248;28;93486;-80
2023/09/04 01:35:48;;;;;;;7.05;1.77;;;;;;;;;;4963491;28;92642;-80
2023/09/04 01:38:15;;;;;;;6.57;1.95;;;;;;;;;;4971429;28;93179;-80
2023/09/04 01:40:42;;;;;;;8.07;2.10;;;;;;;;;;4992526;28;92528;-80
2023/09/04 01:43:09;;;;;;;4.15;1.83;;;;;;;;;;4971509;28;94793;-80
2023/09/04 01:45:35;;;;;;;4.50;1.70;;;;;;;;;;4970868;28;94785;-80
2023/09/04 01:48:02;;;;;;;4.43;1.70;;;;;;;;;;4989163;28;92557;-80
2023/09/04 01:50:29;;;;;;;5.25;1.77;;;;;;;;;;4987893;28;95473;-80
2023/09/04 01:52:55;;;;;;;4.72;1.80;;;;;;;;;;4988619;28;92963;-80
2023/09/04 01:55:22;;;;;;;3.38;1.80;;;;;;;;;;4970880;28;93135;-80
2023/09/04 01:57:48;;;;;;;4.07;1.80;;;;;;;;;;4970797;28;95626;-79
2023/09/04 02:00:15;;;;;;;4.50;1.90;;;;;;;;;;4970549;28;95264;-80
2023/09/04 02:02:42;;;;;;;3.38;1.65;;;;;;;;;;4992001;28;92468;-79
2023/09/04 02:05:09;;;;;;;4.68;1.83;;;;;;;;;;4988510;28;93226;-79
2023/09/04 02:07:35;;;;;;;4.60;1.83;;;;;;;;;;4975411;28;91750;-79
2023/09/04 02:10:03;;;;;;;4.55;1.90;;;;;;;;;;4970842;28;92488;-79
2023/09/04 02:12:29;;;;;;;;;;;;;;;;;;4988802;28;94357;-79
2023/09/04 02:14:56;;;;;;;3.75;1.60;;;;;;;;;;4988205;28;100746;-79
2023/09/04 02:17:23;;;;;;;4.10;1.63;;;;;;;;;;4988761;28;97616;-79
2023/09/04 02:19:49;;;;;;;5.97;1.90;;;;;;;;;;4989086;28;93054;-80
2023/09/04 02:22:16;;;;;;;4.30;1.70;;;;;;;;;;4995055;28;92933;-80
2023/09/04 02:24:44;;;;;;;5.55;1.88;;;;;;;;;;4973812;28;95276;-80
2023/09/04 02:27:10;;;;;;;7.25;2.08;;;;;;;;;;4969874;28;92554;-80
2023/09/04 02:29:37;;;;;;;3.45;1.75;;;;;;;;;;4988725;28;93410;-80
2023/09/04 02:32:04;;;;;;;4.50;1.90;;;;;;;;;;4988655;28;93280;-81
2023/09/04 02:34:31;;;;;;;6.50;2.10;;;;;;;;;;4982851;28;92465;-81
2023/09/04 02:36:58;;;;;;;4.53;1.80;;;;;;;;;;4970517;28;95581;-80
2023/09/04 02:39:24;;;;;;;3.80;1.83;;;;;;;;;;4988083;28;96123;-81
2023/09/04 02:41:51;;;;;;;5.30;2.05;;;;;;;;;;4973968;28;92565;-80
2023/09/04 02:44:17;;;;;;;6.00;1.98;;;;;;;;;;4992235;28;93048;-80
2023/09/04 02:46:44;;;;;;;5.60;1.98;;;;;;;;;;4994960;28;93242;-80
2023/09/04 02:49:10;;;;;;;5.75;2.05;;;;;;;;;;4992319;28;93313;-79
2023/09/04 02:51:37;;;;;;;5.68;1.85;;;;;;;;;;4979553;28;93054;-80
2023/09/04 02:54:03;;;;;;;8.02;2.17;;;;;;;;;;4962724;28;92565;-80
2023/09/04 02:56:30;;;;;;;5.93;2.00;;;;;;;;;;4980543;28;95455;-80
2023/09/04 02:58:56;;;;;;;6.47;2.00;;;;;;;;;;4975956;28;94225;-80
2023/09/04 03:01:23;;;;;;;4.70;1.60;;;;;;;;;;4993021;28;92620;-80
2023/09/04 03:03:50;;;;;;;5.97;1.58;;;;;;;;;;4972472;28;95354;-80
2023/09/04 03:06:16;;;;;;;4.07;1.67;;;;;;;;;;4992394;28;92856;-81
2023/09/04 03:08:43;;;;;;;3.75;1.70;;;;;;;;;;4960847;28;92554;-80
2023/09/04 03:11:10;;;;;;;2.92;1.60;;;;;;;;;;4991797;28;93133;-80
2023/09/04 03:13:36;;;;;;;;;;;;;;;;;;4973551;28;92472;-80
2023/09/04 03:16:05;;;;;;;4.20;1.70;;;;;;;;;;4978302;28;94691;-79
2023/09/04 03:18:33;;;;;;;3.97;2.00;;;;;;;;;;4974292;28;94847;-79
2023/09/04 03:21:03;;;;;;;3.63;1.80;;;;;;;;;;4992999;28;91816;-79
2023/09/04 03:23:31;;;;;;;3.42;1.60;;;;;;;;;;4973095;28;94689;-79
2023/09/04 03:25:57;;;;;;;4.93;2.20;;;;;;;;;;4971674;28;96191;-80
2023/09/04 03:28:24;;;;;;;3.47;1.80;;;;;;;;;;4958128;28;95476;-79
2023/09/04 03:30:52;;;;;;;4.65;1.95;;;;;;;;;;4972490;28;95380;-79
2023/09/04 03:33:21;;;;;;;4.00;1.80;;;;;;;;;;4973001;28;93024;-79
2023/09/04 03:35:47;;;;;;;4.50;1.88;;;;;;;;;;4972757;28;95819;-79
2023/09/04 03:38:14;;;;;;;4.95;1.70;;;;;;;;;;4990682;28;93672;-78
2023/09/04 03:40:41;;;;;;;4.80;1.70;;;;;;;;;;4956785;28;92506;-79
2023/09/04 03:43:08;;;;;;;4.03;1.85;;;;;;;;;;4973457;28;92897;-79
2023/09/04 03:45:35;;;;;;;4.07;1.80;;;;;;;;;;4991367;28;93459;-79
2023/09/04 03:48:13;;;;;;;4.93;1.80;;;;;;;;;;4974575;28;92573;-79
2023/09/04 03:50:40;;;;;;;4.47;1.73;;;;;;;;;;4995598;28;92659;-80
2023/09/04 03:53:07;;;;;;;3.05;1.75;;;;;;;;;;4971498;28;95041;-79
2023/09/04 03:55:34;;;;;;;5.15;2.00;;;;;;;;;;4990479;28;95775;-78
2023/09/04 03:58:03;;;;;;;3.35;1.80;;;;;;;;;;4972769;28;95313;-79
2023/09/04 04:00:30;;;;;;;5.32;1.75;;;;;;;;;;4990621;28;92400;-79
2023/09/04 04:02:58;;;;;;;3.67;1.80;;;;;;;;;;4972077;28;95430;-78
2023/09/04 04:05:25;;;;;;;7.15;2.10;;;;;;;;;;4971386;28;95774;-79
2023/09/04 04:07:52;;;;;;;6.10;2.00;;;;;;;;;;4990589;28;92632;-79
2023/09/04 04:10:19;;;;;;;5.10;1.83;;;;;;;;;;4972333;28;96008;-79
2023/09/04 04:12:46;;;;;;;3.75;1.80;;;;;;;;;;4975035;28;94225;-78
2023/09/04 04:15:13;;;;;;;3.67;1.88;;;;;;;;;;4989707;28;93382;-78
2023/09/04 04:17:40;;;;;;;3.90;1.70;;;;;;;;;;4988509;28;96053;-79
2023/09/04 04:20:09;;;;;;;2.95;1.67;;;;;;;;;;4971622;28;93044;-79
2023/09/04 04:22:36;;;;;;;5.45;2.00;;;;;;;;;;4990016;28;93383;-79
2023/09/04 04:25:03;;;;;;;4.22;1.70;;;;;;;;;;4989836;28;93132;-79
2023/09/04 04:27:30;;;;;;;4.85;1.77;;;;;;;;;;4970985;28;92440;-79
2023/09/04 04:29:58;;;;;;;4.38;1.90;;;;;;;;;;4989911;28;92965;-79
2023/09/04 04:32:29;;;;;;;5.38;1.80;;;;;;;;;;4972161;28;94637;-79
2023/09/04 04:34:56;;;;;;;4.70;1.80;;;;;;;;;;4978983;28;92065;-79
2023/09/04 04:37:22;;;;;;;4.72;1.83;;;;;;;;;;4993453;28;93082;-79
2023/09/04 04:39:51;;;;;;;4.63;1.80;;;;;;;;;;4974148;28;92405;-79
2023/09/04 04:42:18;;;;;;;4.68;1.60;;;;;;;;;;4963314;28;94982;-80
2023/09/04 04:44:45;;;;;;;4.60;1.90;;;;;;;;;;4958964;28;96362;-80
2023/09/04 04:47:13;;;;;;;4.85;1.88;;;;;;;;;;4977805;28;92608;-80
2023/09/04 04:49:39;;;;;;;5.30;2.00;;;;;;;;;;4979475;28;96088;-79
2023/09/04 04:52:06;;;;;;;5.13;1.77;;;;;;;;;;4966605;28;96125;-79
2023/09/04 04:54:33;;;;;;;3.70;1.63;;;;;;;;;;4998654;28;92438;-80
2023/09/04 04:56:59;;;;;;;4.40;1.90;;;;;;;;;;4979854;28;96029;-80
2023/09/04 04:59:26;;;;;;;5.97;1.83;;;;;;;;;;4985356;28;91656;-80
2023/09/04 05:01:54;;;;;;;4.32;1.88;;;;;;;;;;4976320;28;92414;-80
2023/09/04 05:04:22;;;;;;;4.50;1.88;;;;;;;;;;4992379;28;92899;-79
2023/09/04 05:06:50;;;;;;;4.40;1.80;;;;;;;;;;4971994;28;94870;-80
2023/09/04 05:09:17;;;;;;;5.95;1.90;;;;;;;;;;4973869;28;98337;-80
2023/09/04 05:11:44;;;;;;;4.35;1.73;;;;;;;;;;4971804;28;94952;-80
2023/09/04 05:14:11;;;;;;;5.88;1.90;;;;;;;;;;4988934;28;92846;-80
2023/09/04 05:16:38;;;;;;;4.00;1.90;;;;;;;;;;4970500;28;95550;-79
2023/09/04 05:19:05;;;;;;;3.35;1.70;;;;;;;;;;4991212;28;93082;-79
2023/09/04 05:21:31;;;;;;;3.47;1.85;;;;;;;;;;4988465;28;92879;-80
2023/09/04 05:24:11;;;;;;;3.03;1.70;;;;;;;;;;4990777;28;92818;-83
2023/09/04 05:26:38;;;;;;;3.28;1.77;;;;;;;;;;4988127;28;92692;-83
2023/09/04 05:29:05;;;;;;;4.15;1.77;;;;;;;;;;4980067;28;96532;-83
2023/09/04 05:31:31;;;;;;;4.25;1.85;;;;;;;;;;4986685;28;96000;-84
2023/09/04 05:33:58;;;;;;;3.25;1.77;;;;;;;;;;4994422;28;92944;-83
2023/09/04 05:36:25;;;;;;;4.63;1.80;;;;;;;;;;4988893;28;92737;-83
2023/09/04 05:38:51;;;;;;;5.43;1.70;;;;;;;;;;4992137;28;92485;-83
2023/09/04 05:41:18;;;;;;;5.80;1.95;;;;;;;;;;4989550;28;92959;-83
2023/09/04 05:43:44;;;;;;;4.78;1.80;;;;;;;;;;4975283;28;93253;-82
2023/09/04 05:46:11;;;;;;;5.53;2.10;;;;;;;;;;4989068;28;92558;-83
2023/09/04 05:48:37;;;;;;;4.10;1.80;;;;;;;;;;4989531;28;92794;-82
2023/09/04 05:51:04;;;;;;;4.57;2.03;;;;;;;;;;4971736;28;93197;-83
2023/09/04 05:53:31;;;;;;;6.60;2.08;;;;;;;;;;4970278;28;92555;-82
2023/09/04 05:56:09;;;;;;;6.82;2.00;;;;;;;;;;4987693;28;94816;-83
2023/09/04 05:58:42;;;;;;;3.88;1.77;;;;;;;;;;4989107;28;93171;-83
2023/09/04 06:01:09;;;;;;;6.13;1.85;;;;;;;;;;4992628;28;92962;-83
2023/09/04 06:03:36;;;;;;;5.93;2.17;;;;;;;;;;4986630;28;92685;-82
2023/09/04 06:06:02;;;;;;;7.03;2.03;;;;;;;;;;4988951;28;92933;-83
2023/09/04 06:08:30;;;;;;;8.27;1.88;;;;;;;;;;4971449;28;93069;-83
2023/09/04 06:10:56;;;;;;;4.85;2.13;;;;;;;;;;4971175;28;94895;-83
2023/09/04 06:13:23;;;;;;;5.65;1.90;;;;;;;;;;4992997;28;91853;-82
2023/09/04 06:15:51;;;;;;;5.03;2.08;;;;;;;;;;4974861;28;93112;-83
2023/09/04 06:18:19;;;;;;;9.23;2.20;;;;;;;;;;4974069;28;94246;-81
2023/09/04 06:20:46;;;;;;;6.15;2.10;;;;;;;;;;4990520;28;94907;-81
2023/09/04 06:23:12;;;;;;;4.38;2.05;;;;;;;;;;4977649;28;98100;-81
2023/09/04 06:25:39;;;;;;;6.25;1.98;;;;;;;;;;4993119;28;92526;-80
2023/09/04 06:28:06;;;;;;;8.23;2.20;;;;;;;;;;4992388;28;94319;-81
2023/09/04 06:30:33;;;;;;;4.15;1.98;;;;;;;;;;4993340;28;94080;-80
2023/09/04 06:33:00;;;;;;;6.68;1.90;;;;;;;;;;4993149;28;92836;-80
2023/09/04 06:35:28;;;;;;;5.93;1.90;;;;;;;;;;4990850;28;92871;-80
2023/09/04 06:37:55;;;;;;;8.43;2.72;;;;;;;;;;4977909;28;92318;-80
2023/09/04 06:40:22;;;;;;;7.20;2.25;;;;;;;;;;4966259;28;92843;-80
2023/09/04 06:42:49;;;;;;;13.20;2.25;;;;;;;;;;5006348;28;93735;-80
2023/09/04 06:45:16;;;;;;;3.65;1.80;;;;;;;;;;4987401;28;95437;-80
2023/09/04 06:47:42;;;;;;;6.72;2.00;;;;;;;;;;4985219;28;95606;-81
2023/09/04 06:50:09;;;;;;;5.68;2.00;;;;;;;;;;4976442;28;93360;-81
2023/09/04 06:52:35;;;;;;;4.60;1.77;;;;;;;;;;5002214;28;92496;-80
2023/09/04 06:55:03;;;;;;;5.10;2.03;;;;;;;;;;4992180;28;93999;-80
2023/09/04 06:57:29;;;;;;;;;;;;;;;;;;4995015;28;93140;-80
2023/09/04 06:59:57;;;;;;;5.55;2.00;;;;;;;;;;4992766;28;94578;-81
2023/09/04 07:02:24;;;;;;;5.60;2.00;;;;;;;;;;4991888;28;92615;-80
2023/09/04 07:04:51;;;;;;;6.32;2.22;;;;;;;;;;4987090;28;93134;-81
2023/09/04 07:07:17;;;;;;;7.80;2.83;;;;;;;;;;5001494;28;92738;-80
2023/09/04 07:09:44;;;;;;;8.40;3.55;;;;;;;;;;4999862;28;96114;-81
2023/09/04 07:12:12;;;;;;;9.40;4.10;;;;;;;;;;4985045;28;92467;-81
2023/09/04 07:14:39;;;;;;;7.38;3.20;;;;;;;;;;4977625;28;93423;-80
2023/09/04 07:17:06;;;;;;;;;;;;;;;;;;4956184;28;95670;-81
2023/09/04 07:19:35;;;;;;;6.57;3.03;;;;;;;;;;4964440;28;99065;-82
2023/09/04 07:22:02;;;;;;;7.40;3.40;;;;;;;;;;4996659;28;93608;-81
2023/09/04 07:24:28;;;;;;;9.27;4.28;;;;;;;;;;4986854;28;92548;-82
2023/09/04 07:26:55;;;;;;;8.73;4.72;;;;;;;;;;4995160;28;94437;-80
2023/09/04 07:29:22;;;;;;;10.43;4.63;;;;;;;;;;4978967;28;92746;-81
2023/09/04 07:31:48;;;;;;;9.60;4.32;;;;;;;;;;4995029;28;92539;-80
2023/09/04 07:34:15;;;;;;;9.38;4.38;;;;;;;;;;4991858;28;96039;-81
2023/09/04 07:36:41;;;;;;;10.95;5.15;;;;;;;;;;4993410;28;93202;-81
2023/09/04 07:39:08;;;;;;;7.85;4.63;;;;;;;;;;4973488;28;92586;-81
2023/09/04 07:41:34;;;;;;;9.40;4.57;;;;;;;;;;4992962;28;92511;-81
2023/09/04 07:44:01;;;;;;;9.23;4.00;;;;;;;;;;4972656;28;95619;-82
2023/09/04 07:46:28;;;;;;;10.38;5.47;;;;;;;;;;4991561;28;92935;-81
2023/09/04 07:48:54;;;;;;;11.75;5.43;;;;;;;;;;4999483;28;94275;-82
2023/09/04 07:51:21;;;;;;;9.85;5.13;;;;;;;;;;4990971;28;92076;-82
2023/09/04 07:54:00;;;;;;;7.40;3.55;;;;;;;;;;4997332;28;93313;-82
2023/09/04 07:56:27;;;;;;;6.53;2.90;;;;;;;;;;4991364;28;92452;-82
2023/09/04 07:58:55;;;;;;;8.02;4.25;;;;;;;;;;4988985;28;95231;-82
2023/09/04 08:01:21;;;;;;;8.93;4.28;;;;;;;;;;4990501;28;95912;-82
2023/09/04 08:03:48;;;;;;;9.82;5.45;;;;;;;;;;4989857;28;93060;-81
2023/09/04 08:06:14;;;;;;;9.60;4.32;;;;;;;;;;4985142;28;92575;-81
2023/09/04 08:08:41;;;;;;;11.23;6.13;;;;;;;;;;4997449;28;92384;-82
2023/09/04 08:11:08;;;;;;;9.55;4.90;;;;;;;;;;4993159;28;93067;-82
2023/09/04 08:13:34;;;;;;;10.93;6.05;;;;;;;;;;4990327;28;93852;-82
2023/09/04 08:16:01;;;;;;;7.50;3.67;;;;;;;;;;4972457;28;92333;-81
2023/09/04 08:18:27;;;;;;;10.52;5.28;;;;;;;;;;5002690;28;94213;-81
2023/09/04 08:20:54;;;;;;;7.70;4.10;;;;;;;;;;4991274;28;92779;-81
2023/09/04 08:23:21;;;;;;;13.05;4.65;;;;;;;;;;4977962;28;96671;-81
2023/09/04 08:25:56;;;;;;;7.50;3.63;;;;;;;;;;4996016;28;92498;-80
2023/09/04 08:28:22;;;;;;;7.05;2.92;;;;;;;;;;4994858;28;92902;-80
2023/09/04 08:30:49;;;;;;;6.90;3.40;;;;;;;;;;4991824;28;93817;-80
2023/09/04 08:33:15;;;;;;;5.90;2.80;;;;;;;;;;4994114;28;93051;-81
2023/09/04 08:35:42;;;;;;;8.88;3.55;;;;;;;;;;4972260;28;93843;-81
2023/09/04 08:38:08;;;;;;;10.48;6.10;;;;;;;;;;4991859;28;92598;-80
2023/09/04 08:40:37;;;;;;;13.35;7.53;;;;;;;;;;4981039;28;92919;-80
2023/09/04 08:43:04;;;;;;;12.55;7.90;;;;;;;;;;4994911;28;93134;-80
2023/09/04 08:45:30;;;;;;;12.52;7.03;;;;;;;;;;4973289;28;92574;-80
2023/09/04 08:47:57;;;;;;;12.13;7.07;;;;;;;;;;5000711;28;95810;-80
2023/09/04 08:50:26;;;;;;;;;;;;;;;;;;4990465;28;93809;-81
2023/09/04 08:52:52;;;;;;;12.10;6.82;;;;;;;;;;4988705;28;108630;-81
2023/09/04 08:55:20;;;;;;;11.57;6.88;;;;;;;;;;4990655;28;92897;-80
2023/09/04 08:57:47;;;;;;;;;;;;;;;;;;4989099;28;92934;-81
2023/09/04 09:00:15;;;;;;;11.80;6.70;;;;;;;;;;4990192;28;107094;-81
2023/09/04 09:02:45;;;;;;;10.20;5.95;;;;;;;;;;4988973;28;93658;-81
2023/09/04 09:05:12;;;;;;;11.63;7.20;;;;;;;;;;4989819;28;91792;-81
2023/09/04 09:07:40;;;;;;;14.25;7.13;;;;;;;;;;4989955;28;92643;-81
2023/09/04 09:10:09;;;;;;;9.25;5.10;;;;;;;;;;4988955;28;93119;-81
2023/09/04 09:12:35;;;;;;;12.60;6.18;;;;;;;;;;4968001;28;95217;-80
2023/09/04 09:15:02;;;;;;;13.05;6.85;;;;;;;;;;4978247;28;95346;-81
2023/09/04 09:17:29;;;;;;;12.50;6.57;;;;;;;;;;4990505;28;94216;-81
2023/09/04 09:19:55;;;;;;;11.05;6.32;;;;;;;;;;4988857;28;92866;-81
2023/09/04 09:22:22;;;;;;;11.60;6.32;;;;;;;;;;4989047;28;94152;-81
2023/09/04 09:24:54;;;;;;;10.20;6.18;;;;;;;;;;4972336;28;92557;-81
2023/09/04 09:27:21;;;;;;;12.20;7.03;;;;;;;;;;4993720;28;95916;-81
2023/09/04 09:29:51;;;;;;;12.13;5.93;;;;;;;;;;4964101;28;95327;-82
2023/09/04 09:32:18;;;;;;;10.77;5.78;;;;;;;;;;4989742;28;92498;-81
2023/09/04 09:34:48;;;;;;;9.13;3.50;;;;;;;;;;4985941;28;94068;-81
2023/09/04 09:37:15;;;;;;;12.13;5.63;;;;;;;;;;4987497;28;95593;-80
2023/09/04 09:39:42;;;;;;;11.38;4.85;;;;;;;;;;4982499;28;92706;-80
2023/09/04 09:42:08;;;;;;;11.10;5.72;;;;;;;;;;4971925;28;96056;-81
2023/09/04 09:44:35;;;;;;;13.68;4.90;;;;;;;;;;4953122;28;93853;-80
2023/09/04 09:47:11;;;;;;;10.15;4.90;;;;;;;;;;4962616;28;96997;-80
2023/09/04 09:49:40;;;;;;;8.45;3.50;;;;;;;;;;4986801;28;93244;-81
2023/09/04 09:52:10;;;;;;;13.35;5.30;;;;;;;;;;4990082;28;92583;-81
2023/09/04 09:54:38;;;;;;;21.30;6.18;;;;;;;;;;4989531;28;92988;-81
2023/09/04 09:57:07;;;;;;;13.23;4.65;;;;;;;;;;4992115;28;94056;-80
2023/09/04 09:59:38;;;;;;;11.07;5.30;;;;;;;;;;4976803;28;92661;-80
2023/09/04 10:02:06;;;;;;;10.07;5.03;;;;;;;;;;4969443;28;95589;-80
2023/09/04 10:04:33;;;;;;;8.85;3.45;;;;;;;;;;4991538;28;92443;-81
2023/09/04 10:07:01;;;;;;;9.80;3.42;;;;;;;;;;4979451;28;92865;-82
2023/09/04 10:09:29;;;;;;;11.65;4.80;;;;;;;;;;4975936;28;93275;-81
2023/09/04 10:12:02;;;;;;;10.55;5.10;;;;;;;;;;4963487;28;92523;-82
2023/09/04 10:14:32;;;;;;;8.27;3.97;;;;;;;;;;4974095;28;92779;-81
2023/09/04 10:17:00;;;;;;;8.27;4.10;;;;;;;;;;4958646;28;95891;-82
2023/09/04 10:19:29;;;;;;;7.47;3.65;;;;;;;;;;4997413;28;92185;-83
2023/09/04 10:21:59;;;;;;;9.43;5.10;;;;;;;;;;5012748;28;92415;-85
2023/09/04 10:24:32;;;;;;;7.22;3.83;;;;;;;;;;5012840;28;92392;-85
2023/09/04 10:27:08;;;;;;;9.40;4.82;;;;;;;;;;5002652;28;95270;-85
2023/09/04 10:29:41;;;;;;;7.25;3.67;;;;;;;;;;4980286;28;92836;-85
2023/09/04 10:32:08;;;;;;;8.40;3.92;;;;;;;;;;4981128;28;92982;-84
2023/09/04 10:34:35;;;;;;;8.55;4.45;;;;;;;;;;4994960;28;93444;-84
2023/09/04 10:37:02;;;;;;;8.07;4.20;;;;;;;;;;4995169;28;93179;-84
2023/09/04 10:39:30;;;;;;;11.10;5.15;;;;;;;;;;4993157;28;92657;-84
2023/09/04 10:41:58;;;;;;;9.55;4.40;;;;;;;;;;4997656;28;93340;-83
2023/09/04 10:44:43;;;;;;;8.68;4.25;;;;;;;;;;4992140;28;92508;-84
2023/09/04 10:47:09;;;;;;;8.80;4.75;;;;;;;;;;4986975;28;93485;-85
2023/09/04 10:49:36;;;;;;;9.50;4.72;;;;;;;;;;4991962;28;93050;-84
2023/09/04 10:52:03;;;;;;;9.07;3.60;;;;;;;;;;4964404;28;95244;-83
2023/09/04 10:54:30;;;;;;;8.25;3.85;;;;;;;;;;4991093;28;95150;-84
2023/09/04 10:56:57;;;;;;;6.78;3.65;;;;;;;;;;4972730;28;93209;-85
2023/09/04 10:59:25;;;;;;;11.05;4.90;;;;;;;;;;4990239;28;92663;-85
2023/09/04 11:01:52;;;;;;;7.88;4.50;;;;;;;;;;4975870;28;92972;-85
2023/09/04 11:04:18;;;;;;;;;;;;;;;;;;4991628;28;94278;-84
2023/09/04 11:07:05;;;;;;;8.52;3.63;;;;;;;;;;4998252;28;92915;-84
2023/09/04 11:09:31;;;;;;;10.43;3.30;;;;;;;;;;4983391;28;92514;-85
2023/09/04 11:11:59;;;;;;;7.45;3.72;;;;;;;;;;4983538;28;93063;-85
2023/09/04 11:14:32;;;;;;;8.15;3.28;;;;;;;;;;4978120;28;93286;-84
2023/09/04 11:17:02;;;;;;;7.07;3.20;;;;;;;;;;4956939;28;95398;-85
2023/09/04 11:19:28;;;;;;;6.50;2.95;;;;;;;;;;4990468;28;92619;-84
2023/09/04 11:21:55;;;;;;;6.82;3.38;;;;;;;;;;4958562;28;95725;-85
2023/09/04 11:24:22;;;;;;;6.65;3.30;;;;;;;;;;4973633;28;95736;-84
2023/09/04 11:26:49;;;;;;;7.00;2.80;;;;;;;;;;4976747;28;92621;-85
2023/09/04 11:29:16;;;;;;;5.35;2.50;;;;;;;;;;4975020;28;93256;-85
2023/09/04 11:31:43;;;;;;;5.47;2.50;;;;;;;;;;4966737;28;92717;-85
2023/09/04 11:34:28;;;;;;;6.78;2.60;;;;;;;;;;4960810;28;94732;-85
2023/09/04 11:36:55;;;;;;;5.10;2.53;;;;;;;;;;4975489;28;92555;-85
2023/09/04 11:39:22;;;;;;;6.32;3.08;;;;;;;;;;4972166;28;92638;-85
2023/09/04 11:41:50;;;;;;;5.72;2.80;;;;;;;;;;4974084;28;95392;-82
2023/09/04 11:44:16;;;;;;;6.32;2.70;;;;;;;;;;4984469;28;92901;-86
2023/09/04 11:46:43;;;;;;;6.50;2.83;;;;;;;;;;4963325;28;92738;-85
2023/09/04 11:49:10;;;;;;;5.78;2.30;;;;;;;;;;4964049;28;95827;-84
2023/09/04 11:51:37;;;;;;;5.63;2.40;;;;;;;;;;4979193;28;92563;-85
2023/09/04 11:54:04;;;;;;;6.35;2.60;;;;;;;;;;4966512;28;92491;-85
2023/09/04 11:56:31;;;;;;;8.77;3.75;;;;;;;;;;4972323;28;93958;-86
2023/09/04 11:58:57;;;;;;;7.95;3.00;;;;;;;;;;4971209;28;91685;-83
2023/09/04 12:01:24;;;;;;;7.82;2.80;;;;;;;;;;4969968;28;94988;-83
2023/09/04 12:03:53;;;;;;;6.32;2.50;;;;;;;;;;4976008;28;93096;-84
2023/09/04 12:06:24;;;;;;;5.35;2.40;;;;;;;;;;4967743;28;95197;-85
2023/09/04 12:08:51;;;;;;;5.47;2.35;;;;;;;;;;4957888;28;95046;-83
2023/09/04 12:11:17;;;;;;;7.15;2.78;;;;;;;;;;4973937;28;93017;-84
2023/09/04 12:13:44;;;;;;;5.65;2.63;;;;;;;;;;4966435;28;93143;-84
2023/09/04 12:16:11;;;;;;;8.93;3.15;;;;;;;;;;4959998;28;94054;-82
2023/09/04 12:18:38;;;;;;;7.40;2.75;;;;;;;;;;4972569;28;92897;-83
2023/09/04 12:21:11;;;;;;;5.85;2.60;;;;;;;;;;4975140;28;92412;-83
2023/09/04 12:23:45;;;;;;;5.45;2.60;;;;;;;;;;4964240;28;93664;-83
2023/09/04 12:26:15;;;;;;;6.97;2.30;;;;;;;;;;4970307;28;92501;-83
2023/09/04 12:28:43;;;;;;;5.97;2.83;;;;;;;;;;4969313;28;95764;-83
2023/09/04 12:31:10;;;;;;;6.65;2.58;;;;;;;;;;4970052;28;96017;-84
2023/09/04 12:33:38;;;;;;;5.35;2.50;;;;;;;;;;4975374;28;92849;-83
2023/09/04 12:36:06;;;;;;;6.30;2.75;;;;;;;;;;4970696;28;93129;-83
2023/09/04 12:38:32;;;;;;;7.63;3.33;;;;;;;;;;4971403;28;93035;-84
2023/09/04 12:40:59;;;;;;;6.85;2.58;;;;;;;;;;4972724;28;92452;-84
2023/09/04 12:43:25;;;;;;;6.28;2.80;;;;;;;;;;4974247;28;92407;-84
2023/09/04 12:45:52;;;;;;;9.38;2.90;;;;;;;;;;4973352;28;92703;-86
2023/09/04 12:48:18;;;;;;;5.95;2.53;;;;;;;;;;4974002;28;92389;-85
2023/09/04 12:50:45;;;;;;;5.90;2.50;;;;;;;;;;4974538;28;92405;-85
2023/09/04 12:53:12;;;;;;;7.53;2.83;;;;;;;;;;4976081;28;92919;-86
2023/09/04 12:55:38;;;;;;;6.07;2.47;;;;;;;;;;4974147;28;95515;-85
2023/09/04 12:58:09;;;;;;;6.53;2.38;;;;;;;;;;4971454;28;93212;-86
2023/09/04 13:00:36;;;;;;;6.15;2.63;;;;;;;;;;4977860;28;92854;-86
2023/09/04 13:03:03;;;;;;;6.03;2.25;;;;;;;;;;4981418;28;93212;-86
2023/09/04 13:05:31;;;;;;;5.50;2.30;;;;;;;;;;4980847;28;93139;-86
2023/09/04 13:07:57;;;;;;;5.20;2.33;;;;;;;;;;4981980;28;92707;-87
2023/09/04 13:10:24;;;;;;;4.82;2.35;;;;;;;;;;4983059;28;93344;-86
2023/09/04 13:12:50;;;;;;;5.85;2.35;;;;;;;;;;4965463;28;91779;-85
2023/09/04 13:15:17;;;;;;;6.70;2.65;;;;;;;;;;4972109;28;92382;-86
2023/09/04 13:17:44;;;;;;;;;;;;;;;;;;4983195;28;93739;-84
2023/09/04 13:20:11;;;;;;;6.60;2.85;;;;;;;;;;4981663;28;116996;-83
2023/09/04 13:22:41;;;;;;;6.80;2.83;;;;;;;;;;4984558;28;92993;-84
2023/09/04 13:25:08;;;;;;;6.38;2.80;;;;;;;;;;4989884;28;92417;-84
2023/09/04 13:27:35;;;;;;;6.78;2.83;;;;;;;;;;4987590;28;92483;-82
2023/09/04 13:30:02;;;;;;;8.20;3.30;;;;;;;;;;5010031;28;92497;-85
2023/09/04 13:32:29;;;;;;;5.72;2.50;;;;;;;;;;5008192;28;92363;-83
2023/09/04 13:34:56;;;;;;;5.95;2.53;;;;;;;;;;5003368;28;92657;-83
2023/09/04 13:37:22;;;;;;;6.38;2.67;;;;;;;;;;4983479;28;92818;-83
2023/09/04 13:39:49;;;;;;;5.35;2.47;;;;;;;;;;4979448;28;93000;-83
2023/09/04 13:42:17;;;;;;;;;;;;;;;;;;4995512;28;93412;-83
2023/09/04 13:44:44;;;;;;;6.35;2.60;;;;;;;;;;4993415;28;100811;-83
2023/09/04 13:47:10;;;;;;;6.75;2.97;;;;;;;;;;4989927;28;93977;-83
2023/09/04 13:49:38;;;;;;;6.07;2.40;;;;;;;;;;4990438;28;93438;-83
2023/09/04 13:52:05;;;;;;;8.23;3.20;;;;;;;;;;4971528;28;92675;-84
2023/09/04 13:54:31;;;;;;;6.70;2.65;;;;;;;;;;4988713;28;92706;-83
2023/09/04 13:56:58;;;;;;;4.63;2.38;;;;;;;;;;4990035;28;93085;-81
2023/09/04 13:59:26;;;;;;;7.03;2.70;;;;;;;;;;4979379;28;93798;-82
2023/09/04 14:01:52;;;;;;;5.93;2.80;;;;;;;;;;4971546;28;93776;-83
2023/09/04 14:04:19;;;;;;;7.35;2.95;;;;;;;;;;4988901;28;93517;-82
2023/09/04 14:06:45;;;;;;;6.25;2.63;;;;;;;;;;4972599;28;93364;-82
2023/09/04 14:09:12;;;;;;;5.18;2.40;;;;;;;;;;4953189;28;96418;-82
2023/09/04 14:11:38;;;;;;;5.93;2.60;;;;;;;;;;4979821;28;92932;-82
2023/09/04 14:14:05;;;;;;;7.30;2.60;;;;;;;;;;4961679;28;93010;-80
2023/09/04 14:16:31;;;;;;;7.13;2.22;;;;;;;;;;4994499;28;92632;-80
2023/09/04 14:18:58;;;;;;;5.65;2.20;;;;;;;;;;4970991;28;92756;-80
2023/09/04 14:21:30;;;;;;;5.30;2.47;;;;;;;;;;4972441;28;94516;-80
2023/09/04 14:23:57;;;;;;;4.28;2.08;;;;;;;;;;4986348;28;92911;-79
2023/09/04 14:26:27;;;;;;;4.82;2.30;;;;;;;;;;4987360;28;92850;-79
2023/09/04 14:28:53;;;;;;;5.53;2.28;;;;;;;;;;4984848;28;94002;-79
2023/09/04 14:31:20;;;;;;;4.88;2.30;;;;;;;;;;4987598;28;92676;-80
2023/09/04 14:33:46;;;;;;;4.50;2.17;;;;;;;;;;4987468;28;95402;-79
2023/09/04 14:36:13;;;;;;;5.65;2.15;;;;;;;;;;4991994;28;93113;-80
2023/09/04 14:38:40;;;;;;;4.82;2.20;;;;;;;;;;4992335;28;92814;-80
2023/09/04 14:41:13;;;;;;;12.75;2.60;;;;;;;;;;4982445;28;94235;-79
2023/09/04 14:43:40;;;;;;;;;;;;;;;;;;4981364;28;94060;-79
2023/09/04 14:46:07;;;;;;;4.15;1.90;;;;;;;;;;4987967;28;92661;-79
2023/09/04 14:48:36;;;;;;;4.10;2.03;;;;;;;;;;4988498;28;93213;-79